Time;durP1;ratioP1;P1;durP2;ratioP2;P2;SDS_P1;SDS_P2;PMS_P1;PMS_P2;Temp;Humidity;BMP_temperature;BMP_pressure;BME280_temperature;BME280_humidity;BME280_pressure;Samples;Min_cycle;Max_cycle;Signal;HPM_P1;HPM_P2
2022/03/07 00:00:09;;;;;;;;;63.75;48.00;;;;;6.52;47.63;101576.25;6254375;22;45305;-83
2022/03/07 00:02:35;;;;;;;;;63.50;49.25;;;;;6.51;48.01;101574.44;6255361;22;47928;-82
2022/03/07 00:05:07;;;;;;;;;47.25;43.25;;;;;6.70;47.89;101572.59;6254247;22;45839;-83
2022/03/07 00:07:32;;;;;;;;;50.00;40.75;;;;;6.47;48.02;101569.88;6254760;22;45689;-84
2022/03/07 00:09:59;;;;;;;;;59.50;50.25;;;;;6.46;48.39;101557.47;6255422;22;45667;-84
2022/03/07 00:12:24;;;;;;;;;62.75;51.75;;;;;6.35;48.70;101569.34;6282575;22;45390;-84
2022/03/07 00:14:50;;;;;;;;;60.25;49.50;;;;;6.32;48.54;101569.19;6282788;22;45300;-83
2022/03/07 00:17:15;;;;;;;;;65.50;51.00;;;;;6.26;48.66;101553.06;6283205;22;45421;-84
2022/03/07 00:19:41;;;;;;;;;61.25;48.75;;;;;6.24;48.89;101560.00;6251601;22;45748;-84
2022/03/07 00:22:06;;;;;;;;;64.25;50.25;;;;;6.27;48.56;101561.06;6284328;22;46215;-84
2022/03/07 00:24:32;;;;;;;;;60.00;48.75;;;;;6.27;48.75;101576.00;6284243;22;45350;-84
2022/03/07 00:26:57;;;;;;;;;52.75;47.00;;;;;6.19;48.12;101563.34;6284280;22;45383;-84
2022/03/07 00:29:22;;;;;;;;;54.75;46.75;;;;;6.23;48.59;101568.78;6284680;22;45485;-84
2022/03/07 00:31:48;;;;;;;;;50.75;42.75;;;;;6.17;48.91;101570.31;6283933;22;46014;-83
2022/03/07 00:37:35;;;;;;;;;56.50;47.00;;;;;6.17;48.61;101570.31;6284456;22;45290;-83
2022/03/07 00:40:01;;;;;;;;;63.25;48.50;;;;;6.16;48.75;101573.78;6284129;22;45452;-83
2022/03/07 00:42:26;;;;;;;;;56.00;46.00;;;;;6.07;48.71;101561.91;6282759;22;46809;-83
2022/03/07 00:44:52;;;;;;;;;51.75;42.25;;;;;6.08;49.21;101571.63;6281126;22;45678;-83
2022/03/07 00:50:42;;;;;;;;;61.25;48.25;;;;;5.99;49.37;101585.31;6283726;22;45300;-84
2022/03/07 00:53:12;;;;;;;;;56.25;47.25;;;;;6.00;49.09;101576.56;6283759;22;45442;-83
2022/03/07 00:55:39;;;;;;;;;47.75;42.75;;;;;5.98;49.31;101576.50;6282481;22;45278;-85
2022/03/07 00:58:04;;;;;;;;;60.00;48.25;;;;;5.98;49.61;101584.41;6282939;22;45325;-84
2022/03/07 01:00:31;;;;;;;;;59.25;47.25;;;;;6.00;49.77;101574.81;6286308;22;45266;-84
2022/03/07 01:02:56;;;;;;;;;57.00;47.75;;;;;5.96;49.32;101571.97;6257704;22;46717;-83
2022/03/07 01:05:22;;;;;;;;;63.00;48.75;;;;;5.94;49.91;101581.53;6284058;22;45781;-84
2022/03/07 01:07:47;;;;;;;;;48.25;43.00;;;;;5.89;49.60;101572.47;6284838;22;45290;-84
2022/03/07 01:10:13;;;;;;;;;63.00;46.50;;;;;5.89;49.71;101576.03;6282903;22;45584;-84
2022/03/07 01:12:39;;;;;;;;;50.00;44.75;;;;;5.86;49.52;101565.34;6282135;22;45369;-83
2022/03/07 01:15:06;;;;;;;;;61.50;45.75;;;;;5.88;49.76;101570.66;6283000;22;45395;-83
2022/03/07 01:17:31;;;;;;;;;46.00;42.75;;;;;5.88;49.87;101578.59;6258520;22;45411;-84
2022/03/07 01:19:57;;;;;;;;;45.25;37.75;;;;;5.78;49.64;101559.69;6285620;22;45691;-84
2022/03/07 01:25:44;;;;;;;;;35.25;33.00;;;;;5.82;49.98;101573.94;6286186;22;45393;-83
2022/03/07 01:28:09;;;;;;;;;47.00;41.75;;;;;5.73;50.16;101571.75;6285002;22;45359;-84
2022/03/07 01:30:35;;;;;;;;;48.50;41.25;;;;;5.71;49.86;101560.22;6286006;22;45440;-84
2022/03/07 01:33:00;;;;;;;;;48.00;37.50;;;;;5.68;50.47;101570.66;6284525;22;47183;-84
2022/03/07 01:35:26;;;;;;;;;47.25;43.25;;;;;5.65;49.89;101559.03;6257896;22;44668;-84
2022/03/07 01:37:51;;;;;;;;;52.25;45.25;;;;;5.64;50.62;101560.78;6282479;22;45604;-84
2022/03/07 01:40:17;;;;;;;;;56.50;46.25;;;;;5.67;50.09;101560.91;6282434;22;45345;-84
2022/03/07 01:42:42;;;;;;;;;51.00;43.50;;;;;5.61;50.07;101568.53;6285333;22;45560;-84
2022/03/07 01:48:31;;;;;;;;;47.50;41.25;;;;;5.59;50.30;101557.00;6287702;22;45445;-84
2022/03/07 01:50:56;;;;;;;;;57.00;44.50;;;;;5.53;50.18;101556.72;6285395;22;45282;-84
2022/03/07 01:53:22;;;;;;;;;52.00;46.50;;;;;5.45;50.08;101563.38;6284521;22;47020;-83
2022/03/07 01:55:48;;;;;;;;;52.25;44.75;;;;;5.47;50.24;101556.44;6287683;22;45350;-84
2022/03/07 01:58:14;;;;;;;;;56.00;44.25;;;;;5.39;50.39;101556.97;6284602;22;45257;-84
2022/03/07 02:00:40;;;;;;;;;55.50;47.00;;;;;5.54;50.63;101553.25;6282254;22;44895;-83
2022/03/07 02:03:06;;;;;;;;;44.00;42.75;;;;;5.43;50.21;101541.28;6282419;22;47462;-83
2022/03/07 02:05:32;;;;;;;;;62.00;48.00;;;;;5.50;50.08;101546.03;6255256;22;45424;-83
2022/03/07 02:07:58;;;;;;;;;49.50;43.00;;;;;5.51;50.74;101542.56;6283400;22;45451;-83
2022/03/07 02:10:27;;;;;;;;;49.25;43.75;;;;;5.64;50.08;101544.06;6281797;22;45763;-82
2022/03/07 02:12:54;;;;;;;;;50.00;43.75;;;;;5.57;50.38;101535.81;6283579;22;45317;-83
2022/03/07 02:15:20;;;;;;;;;58.75;45.50;;;;;5.49;49.99;101539.84;6282559;22;45780;-82
2022/03/07 02:17:52;;;;;;;;;48.50;44.00;;;;;5.51;50.16;101534.63;6284933;22;45728;-82
2022/03/07 02:20:17;;;;;;;;;52.75;41.75;;;;;5.43;50.27;101534.25;6283919;22;45395;-83
2022/03/07 02:22:43;;;;;;;;;45.25;41.50;;;;;5.43;50.55;101526.34;6284289;22;45667;-83
2022/03/07 02:25:09;;;;;;;;;44.00;39.25;;;;;5.49;50.54;101533.66;6256326;22;45261;-83
2022/03/07 02:27:34;;;;;;;;;40.50;40.00;;;;;5.40;50.59;101513.94;6284416;22;45282;-83
2022/03/07 02:30:03;;;;;;;;;56.25;45.25;;;;;5.43;50.18;101525.47;6282525;22;45247;-83
2022/03/07 02:32:28;;;;;;;;;47.25;40.00;;;;;5.39;50.28;101520.06;6256905;22;47590;-83
2022/03/07 02:34:55;;;;;;;;;48.25;41.50;;;;;5.48;49.92;101510.75;6255272;22;45383;-84
2022/03/07 02:37:20;;;;;;;;;39.25;34.50;;;;;5.35;49.89;101518.09;6281143;22;45864;-83
2022/03/07 02:39:46;;;;;;;;;50.25;43.25;;;;;5.36;49.68;101509.34;6283720;22;45363;-83
2022/03/07 02:42:12;;;;;;;;;57.00;43.50;;;;;5.32;49.83;101503.84;6280845;22;47207;-83
2022/03/07 02:44:39;;;;;;;;;48.50;39.50;;;;;5.29;50.34;101501.06;6254761;22;45342;-83
2022/03/07 02:47:05;;;;;;;;;44.25;39.25;;;;;5.36;50.32;101498.78;6281720;22;45754;-82
2022/03/07 02:49:31;;;;;;;;;46.75;41.50;;;;;5.27;50.11;101498.38;6281371;22;45388;-83
2022/03/07 02:51:56;;;;;;;;;56.50;42.50;;;;;5.30;50.68;101505.53;6282770;22;45347;-83
2022/03/07 02:54:22;;;;;;;;;44.00;40.50;;;;;5.27;50.13;101501.00;6282011;22;45305;-83
2022/03/07 02:56:48;;;;;;;;;47.00;39.50;;;;;5.24;49.88;101494.69;6283381;22;45291;-83
2022/03/07 02:59:14;;;;;;;;;58.00;44.75;;;;;5.20;50.62;101493.63;6255630;22;45478;-83
2022/03/07 03:01:40;;;;;;;;;46.25;41.00;;;;;5.17;50.95;101497.03;6283965;22;45665;-83
2022/03/07 03:04:05;;;;;;;;;49.00;44.25;;;;;5.15;50.92;101503.97;6282773;22;45770;-83
2022/03/07 03:06:30;;;;;;;;;48.50;43.75;;;;;5.11;51.05;101504.66;6283439;22;44996;-83
2022/03/07 03:08:56;;;;;;;;;45.00;37.25;;;;;5.08;50.53;101504.47;6257102;22;45482;-83
2022/03/07 03:11:22;;;;;;;;;40.75;39.25;;;;;5.01;51.36;101498.00;6284171;22;45357;-83
2022/03/07 03:13:47;;;;;;;;;45.25;41.75;;;;;4.98;51.45;101492.56;6281284;22;45308;-83
2022/03/07 03:16:13;;;;;;;;;46.00;42.75;;;;;5.06;50.74;101499.97;6281650;22;45298;-83
2022/03/07 03:18:38;;;;;;;;;45.25;42.25;;;;;5.03;51.08;101489.25;6255158;22;45324;-83
2022/03/07 03:21:04;;;;;;;;;46.50;42.25;;;;;4.96;50.90;101495.97;6281114;22;47092;-83
2022/03/07 03:23:29;;;;;;;;;40.50;40.00;;;;;4.97;51.05;101493.41;6283404;22;45267;-83
2022/03/07 03:25:55;;;;;;;;;40.50;39.75;;;;;4.99;50.88;101489.13;6283207;22;45356;-83
2022/03/07 03:28:23;;;;;;;;;49.50;41.00;;;;;4.98;51.48;101489.03;6284612;22;45320;-83
2022/03/07 03:30:49;;;;;;;;;47.50;40.25;;;;;4.86;51.98;101489.34;6281255;22;47979;-82
2022/03/07 03:33:15;;;;;;;;;45.75;41.75;;;;;4.79;51.46;101481.97;6281490;22;45813;-82
2022/03/07 03:35:40;;;;;;;;;52.75;41.50;;;;;4.76;52.00;101510.81;6281935;22;45352;-82
2022/03/07 03:38:08;;;;;;;;;26.25;23.75;;;;;4.72;52.57;101487.75;6285174;22;45385;-82
2022/03/07 03:40:33;;;;;;;;;44.25;40.00;;;;;4.61;51.69;101485.50;6282491;22;48089;-83
2022/03/07 03:42:59;;;;;;;;;42.50;40.50;;;;;4.55;52.00;101485.19;6284892;22;45790;-82
2022/03/07 03:45:24;;;;;;;;;54.25;46.50;;;;;4.58;52.85;101489.69;6286273;22;45260;-82
2022/03/07 03:47:50;;;;;;;;;42.75;39.75;;;;;4.55;52.76;101484.28;6258238;22;45548;-84
2022/03/07 03:50:15;;;;;;;;;41.75;36.25;;;;;4.53;52.77;101494.75;6285131;22;45349;-82
2022/03/07 03:52:42;;;;;;;;;45.25;40.00;;;;;4.66;52.16;101498.00;6283686;22;45400;-83
2022/03/07 03:55:10;;;;;;;;;46.50;40.75;;;;;4.70;52.27;101490.31;6284564;22;45362;-83
2022/03/07 03:57:37;;;;;;;;;46.00;42.50;;;;;4.68;52.16;101506.88;6259988;22;45383;-82
2022/03/07 04:00:08;;;;;;;;;41.50;35.75;;;;;4.58;52.36;101501.13;6286368;22;47143;-82
2022/03/07 04:02:33;;;;;;;;;40.00;33.50;;;;;4.57;51.84;101495.81;6286243;22;45703;-82
2022/03/07 04:04:59;;;;;;;;;43.25;41.00;;;;;4.56;51.54;101507.16;6286555;22;45776;-83
2022/03/07 04:07:25;;;;;;;;;50.00;41.75;;;;;4.53;52.31;101502.66;6286395;22;45510;-84
2022/03/07 04:09:50;;;;;;;;;43.75;40.50;;;;;4.50;51.93;101504.22;6288869;22;45725;-84
2022/03/07 04:12:16;;;;;;;;;41.50;35.00;;;;;4.54;52.18;101501.81;6287529;22;45262;-84
2022/03/07 04:14:41;;;;;;;;;49.00;38.50;;;;;4.53;52.07;101513.19;6261411;22;45387;-83
2022/03/07 04:17:08;;;;;;;;;46.00;39.50;;;;;4.58;53.16;101510.78;6284215;22;45315;-82
2022/03/07 04:19:34;;;;;;;;;47.25;42.00;;;;;4.47;52.05;101501.44;6276864;22;46942;-83
2022/03/07 04:21:59;;;;;;;;;44.75;40.25;;;;;4.49;52.93;101505.97;6276226;22;46007;-82
2022/03/07 04:24:25;;;;;;;;;44.50;41.50;;;;;4.50;52.24;101505.09;6253003;22;45303;-83
2022/03/07 04:26:50;;;;;;;;;40.75;38.75;;;;;4.50;52.45;101517.38;6277506;22;45678;-83
2022/03/07 04:29:15;;;;;;;;;43.00;39.25;;;;;4.50;53.01;101513.00;6275886;22;47450;-83
2022/03/07 04:31:43;;;;;;;;;41.50;38.00;;;;;4.53;52.79;101514.94;6274989;22;45687;-83
2022/03/07 04:34:09;;;;;;;;;49.00;33.25;;;;;4.41;52.53;101509.94;6276859;22;45339;-83
2022/03/07 04:36:38;;;;;;;;;41.75;37.50;;;;;4.47;52.64;101507.59;6276471;22;45405;-83
2022/03/07 04:39:37;;;;;;;;;50.00;43.25;;;;;4.61;52.43;101510.94;6276174;22;48084;-83
2022/03/07 04:42:03;;;;;;;;;46.75;42.00;;;;;4.40;52.77;101511.66;6277143;22;45335;-84
2022/03/07 04:44:29;;;;;;;;;38.25;35.50;;;;;4.40;53.12;101516.00;6276359;22;45442;-83
2022/03/07 04:46:54;;;;;;;;;46.50;42.00;;;;;4.40;52.92;101508.09;6277144;22;45500;-83
2022/03/07 04:49:19;;;;;;;;;53.00;38.50;;;;;4.29;52.35;101497.03;6275162;22;47853;-84
2022/03/07 04:52:35;;;;;;;;;48.00;43.75;;;;;4.55;51.85;101511.53;6249462;22;45347;-83
2022/03/07 04:55:00;;;;;;;;;36.25;35.00;;;;;4.30;53.03;101509.38;6277001;22;44752;-83
2022/03/07 04:57:26;;;;;;;;;49.25;42.00;;;;;4.20;53.07;101514.97;6250318;22;45570;-82
2022/03/07 04:59:51;;;;;;;;;39.00;33.00;;;;;4.10;53.39;101510.97;6253168;22;47090;-83
2022/03/07 05:02:17;;;;;;;;;41.75;36.00;;;;;4.09;53.50;101513.53;6254265;22;45324;-84
2022/03/07 05:05:38;;;;;;;;;44.00;36.25;;;;;4.37;53.51;101515.88;6253104;22;45423;-84
2022/03/07 05:08:04;;;;;;;;;42.50;38.75;;;;;4.23;52.47;101514.25;6254941;22;45352;-83
2022/03/07 05:10:29;;;;;;;;;43.00;39.00;;;;;4.14;54.38;101507.69;6251762;22;47983;-83
2022/03/07 05:12:55;;;;;;;;;50.50;44.50;;;;;4.10;53.46;101505.72;6254512;22;45279;-83
2022/03/07 05:15:20;;;;;;;;;44.75;39.50;;;;;4.18;53.36;101514.91;6252901;22;45659;-83
2022/03/07 05:17:48;;;;;;;;;39.00;34.50;;;;;4.26;53.22;101515.28;6254548;22;45322;-84
2022/03/07 05:20:15;;;;;;;;;38.00;34.00;;;;;4.19;53.23;101493.00;6276836;22;47069;-84
2022/03/07 05:22:42;;;;;;;;;42.50;39.25;;;;;4.19;53.10;101511.44;6250831;22;45402;-83
2022/03/07 05:25:09;;;;;;;;;44.00;39.75;;;;;4.20;53.19;101508.00;6252040;22;45352;-83
2022/03/07 05:27:34;;;;;;;;;40.75;37.25;;;;;4.07;53.86;101500.28;6251681;22;45438;-84
2022/03/07 05:30:34;;;;;;;;;43.00;41.00;;;;;4.28;53.31;101507.47;6253374;22;45421;-83
2022/03/07 05:33:00;;;;;;;;;47.50;42.50;;;;;4.09;53.47;101506.53;6277522;22;45331;-83
2022/03/07 05:35:25;;;;;;;;;37.50;33.75;;;;;4.13;53.07;101516.38;6252803;22;45611;-83
2022/03/07 05:37:57;;;;;;;;;43.25;37.50;;;;;4.21;53.54;101503.63;6250626;22;44890;-83
2022/03/07 05:40:23;;;;;;;;;42.75;37.25;;;;;4.02;53.76;101514.94;6252577;22;45642;-83
2022/03/07 05:42:48;;;;;;;;;46.00;41.25;;;;;3.92;54.06;101512.59;6253083;22;45332;-82
2022/03/07 05:45:14;;;;;;;;;50.00;42.00;;;;;3.85;53.92;101514.00;6251090;22;45416;-81
2022/03/07 05:47:41;;;;;;;;;44.00;38.75;;;;;3.88;54.19;101510.63;6249078;22;45200;-82
2022/03/07 05:50:08;;;;;;;;;45.50;39.25;;;;;3.84;53.56;101506.03;6251084;22;46689;-83
2022/03/07 05:52:34;;;;;;;;;46.75;40.25;;;;;3.86;53.57;101514.91;6249033;22;45710;-81
2022/03/07 05:54:59;;;;;;;;;47.25;41.25;;;;;3.88;54.47;101515.91;6251202;22;45644;-82
2022/03/07 05:57:25;;;;;;;;;54.25;41.25;;;;;3.80;54.63;101505.88;6279846;22;45435;-82
2022/03/07 05:59:50;;;;;;;;;50.25;40.75;;;;;3.91;53.52;101523.97;6278217;22;46958;-82
2022/03/07 06:02:16;;;;;;;;;40.25;39.00;;;;;3.86;54.29;101512.28;6251942;22;45299;-82
2022/03/07 06:04:42;;;;;;;;;52.00;42.75;;;;;3.80;54.19;101516.41;6251633;22;45338;-82
2022/03/07 06:07:07;;;;;;;;;41.25;37.00;;;;;3.82;54.17;101532.28;6277047;22;45726;-82
2022/03/07 06:09:33;;;;;;;;;41.00;36.25;;;;;3.83;54.69;101517.41;6249292;22;48184;-82
2022/03/07 06:11:58;;;;;;;;;50.25;43.75;;;;;3.83;54.50;101530.56;6250888;22;45381;-82
2022/03/07 06:17:55;;;;;;;;;43.00;39.75;;;;;3.99;53.88;101520.91;6253814;22;45310;-82
2022/03/07 06:20:23;;;;;;;;;45.50;44.25;;;;;3.98;53.81;101526.13;6276577;22;46802;-83
2022/03/07 06:22:49;;;;;;;;;49.25;45.00;;;;;3.90;54.09;101530.03;6250414;22;45597;-83
2022/03/07 06:25:15;;;;;;;;;50.00;45.00;;;;;3.90;54.19;101537.94;6252249;22;44775;-82
2022/03/07 06:28:05;;;;;;;;;52.25;43.50;;;;;3.89;54.70;101537.03;6277607;22;45270;-82
2022/03/07 06:30:34;;;;;;;;;56.00;47.00;;;;;3.76;55.24;101551.28;6252739;22;46155;-83
2022/03/07 06:32:59;;;;;;;;;37.50;33.75;;;;;3.61;54.94;101539.91;6254373;22;45389;-83
2022/03/07 06:35:24;;;;;;;;;56.50;46.75;;;;;3.64;55.23;101534.81;6278255;22;45031;-83
2022/03/07 06:37:52;;;;;;;;;52.50;44.50;;;;;3.75;54.92;101540.66;6277368;22;45301;-83
2022/03/07 06:43:40;;;;;;;;;48.50;43.00;;;;;3.91;54.45;101542.41;6253137;22;45316;-83
2022/03/07 06:46:06;;;;;;;;;48.75;45.25;;;;;3.81;54.87;101538.34;6250548;22;45616;-83
2022/03/07 06:48:33;;;;;;;;;36.75;36.00;;;;;3.88;54.43;101539.59;6254707;22;45379;-83
2022/03/07 06:50:58;;;;;;;;;47.75;38.75;;;;;3.85;54.70;101531.53;6250932;22;48099;-83
2022/03/07 06:53:24;;;;;;;;;28.00;25.50;;;;;3.78;54.63;101543.47;6250201;22;45782;-83
2022/03/07 06:56:05;;;;;;;;;47.50;41.75;;;;;3.98;54.27;101541.91;6249996;22;45386;-83
2022/03/07 06:58:30;;;;;;;;;49.50;43.75;;;;;3.84;53.87;101529.72;6253119;22;45295;-83
2022/03/07 07:00:56;;;;;;;;;44.75;41.50;;;;;3.90;53.85;101537.94;6251644;22;47082;-83
2022/03/07 07:03:21;;;;;;;;;46.50;42.25;;;;;4.04;53.87;101536.03;6255480;22;46000;-83
2022/03/07 07:05:46;;;;;;;;;56.50;46.00;;;;;4.02;54.26;101530.72;6279084;22;45374;-83
2022/03/07 07:08:12;;;;;;;;;44.50;41.50;;;;;4.04;54.65;101531.72;6278760;22;45442;-84
2022/03/07 07:10:38;;;;;;;;;47.00;42.25;;;;;4.14;53.89;101533.06;6250767;22;46470;-81
2022/03/07 07:13:03;;;;;;;;;49.50;39.75;;;;;4.11;54.29;101535.56;6252652;22;45391;-81
2022/03/07 07:15:28;;;;;;;;;55.25;43.75;;;;;4.12;53.75;101533.03;6279566;22;45404;-82
2022/03/07 07:17:54;;;;;;;;;48.00;44.25;;;;;4.12;53.49;101540.91;6252833;22;45403;-83
2022/03/07 07:20:23;;;;;;;;;44.75;40.75;;;;;4.08;53.74;101532.75;6278523;22;46791;-82
2022/03/07 07:22:48;;;;;;;;;44.25;40.50;;;;;4.14;53.08;101539.28;6289071;22;45280;-83
2022/03/07 07:25:14;;;;;;;;;54.25;41.75;;;;;4.18;53.45;101541.25;6287744;22;45268;-83
2022/03/07 07:27:40;;;;;;;;;50.50;42.00;;;;;4.18;53.81;101528.06;6289565;22;45211;-82
2022/03/07 07:30:09;;;;;;;;;49.00;45.50;;;;;4.29;53.07;101531.25;6289732;22;46766;-83
2022/03/07 07:32:36;;;;;;;;;43.50;42.00;;;;;4.27;52.77;101534.66;6263310;22;45306;-82
2022/03/07 07:35:02;;;;;;;;;37.00;36.25;;;;;4.29;52.32;101544.44;6289356;22;45286;-82
2022/03/07 07:37:29;;;;;;;;;45.75;38.75;;;;;4.27;52.76;101535.53;6263335;22;45358;-84
2022/03/07 07:39:55;;;;;;;;;46.75;42.25;;;;;4.30;53.30;101543.63;6287723;22;46774;-83
2022/03/07 07:42:24;;;;;;;;;47.25;42.50;;;;;4.49;52.19;101542.84;6290270;22;45241;-83
2022/03/07 07:44:58;;;;;;;;;41.25;35.25;;;;;4.54;52.06;101545.69;6263048;22;45219;-84
2022/03/07 07:47:24;;;;;;;;;46.00;34.25;;;;;4.43;51.88;101554.78;6286534;22;45357;-84
2022/03/07 07:49:50;;;;;;;;;58.75;45.25;;;;;4.21;51.59;101499.25;6285285;22;46078;-85
2022/03/07 07:52:16;;;;;;;;;48.25;43.00;;;;;4.48;51.18;101540.13;6284908;22;45345;-84
2022/03/07 07:54:41;;;;;;;;;55.00;45.00;;;;;4.48;51.49;101541.00;6286752;22;44674;-84
2022/03/07 07:57:07;;;;;;;;;40.00;33.00;;;;;4.43;51.44;101521.44;6285193;22;45252;-85
2022/03/07 08:02:53;;;;;;;;;42.50;39.00;;;;;4.69;51.48;101542.97;6208179;22;45330;-85
2022/03/07 08:05:22;;;;;;;;;56.75;48.25;;;;;4.40;50.75;101490.59;6287687;22;45543;-84
2022/03/07 08:07:48;;;;;;;;;38.25;38.25;;;;;4.53;50.74;101513.19;6284870;22;45318;-84
2022/03/07 08:10:15;;;;;;;;;34.75;34.00;;;;;4.74;51.01;101523.88;6260703;22;45255;-84
2022/03/07 08:13:06;;;;;;;;;44.25;38.75;;;;;4.90;50.49;101512.38;6287153;22;45371;-85
2022/03/07 08:19:00;;;;;;;;;54.75;42.50;;;;;4.93;50.25;101524.84;6287115;22;45378;-83
2022/03/07 08:21:26;;;;;;;;;50.25;44.75;;;;;5.00;50.14;101519.03;6290591;22;45396;-82
2022/03/07 08:24:30;;;;;;;;;54.25;45.75;;;;;5.18;49.54;101527.81;6292969;22;45321;-82
2022/03/07 08:26:58;;;;;;;;;43.50;40.25;;;;;5.07;48.98;101505.31;6263122;22;45069;-85
2022/03/07 08:29:25;;;;;;;;;52.25;44.50;;;;;5.16;49.01;101512.75;6291342;22;45436;-83
2022/03/07 08:31:57;;;;;;;;;53.00;45.00;;;;;5.01;48.44;101478.66;6290325;22;46061;-83
2022/03/07 08:35:06;;;;;;;;;44.00;42.75;;;;;5.44;48.25;101514.09;6265944;22;45431;-86
2022/03/07 08:37:38;;;;;;;;;51.75;44.00;;;;;5.10;48.37;101476.44;6291617;22;45210;-83
2022/03/07 08:40:07;;;;;;;;;49.75;44.50;;;;;5.35;48.35;101503.97;6260724;22;45494;-84
2022/03/07 08:42:34;;;;;;;;;49.00;43.50;;;;;5.41;47.53;101522.75;6290949;22;45290;-85
2022/03/07 08:45:00;;;;;;;;;47.25;41.75;;;;;5.43;46.71;101507.88;6262049;22;45279;-84
2022/03/07 08:47:27;;;;;;;;;49.75;42.50;;;;;5.50;47.79;101514.38;6262114;22;45635;-84
2022/03/07 08:50:00;;;;;;;;;53.75;47.75;;;;;5.58;48.08;101502.44;6262908;22;45757;-82
2022/03/07 08:52:27;;;;;;;;;38.75;33.50;;;;;5.53;47.56;101482.84;6262442;22;46613;-86
2022/03/07 08:54:53;;;;;;;;;52.75;42.25;;;;;5.59;47.10;101512.16;6288548;22;45483;-83
2022/03/07 08:57:19;;;;;;;;;43.50;33.25;;;;;5.68;47.33;101502.03;6288049;22;45344;-84
2022/03/07 08:59:45;;;;;;;;;56.25;46.75;;;;;5.71;45.96;101499.53;6263804;22;45857;-84
2022/03/07 09:02:18;;;;;;;;;54.25;46.25;;;;;5.68;45.68;101499.41;6291679;22;47080;-83
2022/03/07 09:04:50;;;;;;;;;49.50;42.75;;;;;5.51;46.07;101464.31;6290670;22;44721;-84
2022/03/07 09:07:36;;;;;;;;;46.50;41.75;;;;;5.66;45.39;101450.94;6291460;22;45057;-84
2022/03/07 09:10:26;;;;;;;;;;;;;;;;;;;;;
2022/03/07 09:12:56;;;;;;;;;40.50;36.75;;;;;5.91;45.13;101466.13;6267747;22;74457;-84
2022/03/07 09:15:28;;;;;;;;;53.00;43.50;;;;;5.92;45.54;101461.75;6267785;22;45317;-84
2022/03/07 09:17:56;;;;;;;;;58.25;44.50;;;;;6.07;44.92;101491.50;6267205;22;44833;-83
2022/03/07 09:20:22;;;;;;;;;40.50;37.25;;;;;6.08;44.57;101473.91;6245428;22;44831;-84
2022/03/07 09:22:47;;;;;;;;;40.25;35.50;;;;;5.94;45.59;101444.25;6264722;22;45730;-83
2022/03/07 09:25:15;;;;;;;;;37.50;37.50;;;;;6.30;44.53;101481.03;6265609;22;45889;-83
2022/03/07 09:31:06;;;;;;;;;46.00;41.25;;;;;6.14;44.78;101446.06;6296817;22;44812;-85
2022/03/07 09:33:34;;;;;;;;;49.75;43.25;;;;;6.48;43.87;101484.47;6264549;22;45320;-84
2022/03/07 09:36:03;;;;;;;;;41.25;34.25;;;;;6.61;43.22;101500.00;6265833;22;44935;-83
2022/03/07 09:38:31;;;;;;;;;49.25;42.00;;;;;6.48;42.26;101507.34;6266324;22;45358;-83
2022/03/07 09:41:45;;;;;;;;;45.50;40.25;;;;;6.37;43.66;101475.19;6293354;22;44901;-85
2022/03/07 09:44:44;;;;;;;;;36.50;33.25;;;;;6.59;43.19;101499.03;6293262;22;45200;-84
2022/03/07 09:47:23;;;;;;;;;51.75;37.25;;;;;6.40;43.50;101462.09;6265374;22;45320;-82
2022/03/07 09:50:15;;;;;;;;;44.25;41.00;;;;;6.58;43.89;101472.53;6290518;22;44675;-83
2022/03/07 09:52:54;;;;;;;;;51.50;43.75;;;;;6.77;43.68;101488.34;6265619;22;45571;-84
2022/03/07 09:55:21;;;;;;;;;54.75;47.25;;;;;6.80;43.65;101490.19;6264180;22;45149;-83
2022/03/07 10:01:21;;;;;;;;;48.25;41.75;;;;;6.73;42.37;101443.22;6291090;22;45312;-84
2022/03/07 10:03:49;;;;;;;;;48.25;43.00;;;;;6.75;41.99;101455.66;6261533;22;45347;-83
2022/03/07 10:06:26;;;;;;;;;46.00;42.75;;;;;6.78;41.96;101452.22;6290813;22;45323;-85
2022/03/07 10:09:01;;;;;;;;;39.00;34.75;;;;;6.77;41.28;101442.50;6282090;22;45397;-84
2022/03/07 10:11:30;;;;;;;;;31.75;28.00;;;;;7.06;42.43;101479.78;6260023;22;44970;-84
2022/03/07 10:14:05;;;;;;;;;33.50;31.50;;;;;7.11;41.49;101459.69;6263479;22;45349;-84
2022/03/07 10:20:27;;;;;;;;;44.00;39.75;;;;;7.10;40.11;101490.53;6134622;23;45375;-83
2022/03/07 10:22:57;;;;;;;;;31.75;27.75;;;;;7.00;40.02;101454.00;6110410;23;44887;-84
2022/03/07 10:32:19;;;;;;;;;40.00;37.75;;;;;7.30;41.86;101443.72;6133989;23;45479;-82
2022/03/07 10:37:58;;;;;;;;;47.50;43.50;;;;;7.28;40.84;101408.38;6110446;23;45845;-84
2022/03/07 10:40:29;;;;;;;;;47.25;41.50;;;;;7.34;39.27;101440.34;6110117;23;45376;-84
2022/03/07 10:50:44;;;;;;;;;;;;;;;;;;;;;
2022/03/07 10:53:58;;;;;;;;;;;;;;;;;;;;;
2022/03/07 11:23:56;;;;;;;;;;;;;;;;;;;;;
2022/03/07 11:27:08;;;;;;;;;;;;;;;;;;;;;
2022/03/07 11:29:48;;;;;;;;;41.00;39.00;;;;;8.10;36.58;101385.75;6195328;23;74291;-85
2022/03/07 11:32:49;;;;;;;;;33.75;31.25;;;;;7.80;38.00;101319.38;6195258;23;44889;-86
2022/03/07 11:46:51;;;;;;;;;34.25;30.25;;;;;7.90;37.00;101337.38;6142212;23;45402;-85
2022/03/07 11:50:07;;;;;;;;;;;;;;;;;;;;;
2022/03/07 11:52:43;;;;;;;;;;;;;;;;;;;;;
2022/03/07 11:55:51;;;;;;;;;40.00;35.50;;;;;8.29;36.85;101355.47;6230411;22;75806;-89
2022/03/07 11:59:26;;;;;;;;;;;;;;;;;;;;;
2022/03/07 12:02:40;;;;;;;;;;;;;;;;;;;;;
2022/03/07 12:14:09;;;;;;;;;32.00;30.75;;;;;8.30;35.46;101344.03;6304536;22;45292;-88
2022/03/07 12:16:45;;;;;;;;;37.33;34.67;;;;;8.22;35.88;101326.97;6286417;22;45258;-86
2022/03/07 12:19:29;;;;;;;;;44.33;34.33;;;;;8.26;36.81;101327.94;6245864;22;46690;-87
2022/03/07 12:23:13;;;;;;;;;;;;;;;;;;;;;
2022/03/07 12:26:13;;;;;;;;;;;;;;;;;;;;;
2022/03/07 12:36:28;;;;;;;;;50.50;42.50;;;;;8.53;35.87;101320.94;5993215;23;44904;-85
2022/03/07 12:42:22;;;;;;;;;36.75;34.75;;;;;8.51;35.17;101292.59;5994359;23;44837;-88
2022/03/07 13:05:49;;;;;;;;;41.25;36.25;;;;;8.47;35.07;101262.44;6224651;22;44690;-83
2022/03/07 13:25:12;;;;;;;;;35.00;35.00;;;;;8.94;34.87;101241.72;6220744;22;45522;-85
2022/03/07 13:48:12;;;;;;;;;;;;;;;;;;;;;
2022/03/07 14:20:27;;;;;;;;;46.00;34.33;;;;;9.17;34.42;101172.47;6334213;22;45348;-84
2022/03/07 14:23:04;;;;;;;;;42.33;37.67;;;;;9.24;34.11;101193.00;6321443;22;45366;-84
2022/03/07 14:26:51;;;;;;;;;36.33;33.67;;;;;9.25;34.48;101183.28;6343078;22;45376;-85
2022/03/07 14:36:44;;;;;;;;;;;;;;;;;;;;;
2022/03/07 14:39:56;;;;;;;;;;;;;;;;;;;;;
2022/03/07 14:57:32;;;;;;;;;;;;;;;;;;;;;
2022/03/07 15:21:08;;;;;;;;;;;;;;;;;;;;;
2022/03/07 15:24:33;;;;;;;;;;;;;;;;;;;;;
2022/03/07 15:43:59;;;;;;;;;;;;;;;;;;;;;
2022/03/07 15:50:56;;;;;;;;;;;;;;;;;;;;;
2022/03/07 15:57:58;;;;;;;;;42.25;38.00;;;;;9.54;34.30;101085.81;6097803;23;45324;-87
2022/03/07 16:01:17;;;;;;;;;31.33;26.67;;;;;9.55;35.19;101076.97;6076107;23;45356;-84
2022/03/07 16:14:18;;;;;;;;;43.00;39.33;;;;;9.41;35.03;101088.19;6031303;23;45482;-88
2022/03/07 16:17:36;;;;;;;;;31.33;28.67;;;;;9.47;34.95;101078.56;6035000;23;44930;-85
2022/03/07 16:20:04;;;;;;;;;38.67;36.67;;;;;9.34;35.16;101086.22;6051301;23;45557;-85
2022/03/07 16:22:56;;;;;;;;;42.33;36.00;;;;;9.10;35.24;101024.59;6051830;23;46470;-85
2022/03/07 16:25:58;;;;;;;;;;;;;;;;;;;;;
2022/03/07 17:24:38;;;;;;;;;35.67;35.00;;;;;8.57;35.92;101048.88;6289133;22;45748;-87
2022/03/07 17:27:12;;;;;;;;;44.00;36.00;;;;;8.59;36.32;101057.75;6287266;22;45590;-87
2022/03/07 17:47:06;;;;;;;;;32.00;27.00;;;;;8.49;36.91;101099.03;6160332;23;45367;-87
2022/03/07 17:50:23;;;;;;;;;;;;;;;;;;;;;
2022/03/07 18:03:42;;;;;;;;;35.25;34.50;;;;;8.16;37.38;101067.09;5857208;22;10037946;-85
2022/03/07 18:06:14;;;;;;;;;45.33;38.00;;;;;8.37;37.70;101115.44;6287843;22;46272;-87
2022/03/07 18:11:43;;;;;;;;;32.00;27.75;;;;;8.16;37.29;101114.78;6281256;22;45588;-87
2022/03/07 18:14:34;;;;;;;;;35.50;31.25;;;;;8.33;37.32;101118.84;6260301;22;44975;-86